Time,TemperatureF,DewpointF,PressureIn,WindDirection,WindDirectionDegrees,WindSpeedMPH,WindSpeedGustMPH,Humidity,HourlyPrecipIn,Conditions,Clouds,dailyrainin,SoftwareType,DateUTC
2013-02-18 00:02:00,35.0,25.0,29.69,SE,131,6.0,12.0,66,0.00,,,0.00,,2013-02-18 06:02:00,
2013-02-18 00:11:00,35.0,25.0,29.69,SE,131,6.0,12.0,66,0.00,,,0.00,,2013-02-18 06:11:00,
2013-02-18 00:21:00,34.0,24.0,29.68,SE,125,6.0,10.0,67,0.00,,,0.00,,2013-02-18 06:21:00,
2013-02-18 00:32:00,34.0,25.0,29.67,SE,124,6.0,11.0,69,0.00,,,0.00,,2013-02-18 06:32:00,
2013-02-18 00:41:00,34.0,25.0,29.67,SE,124,6.0,11.0,69,0.00,,,0.00,,2013-02-18 06:41:00,
2013-02-18 00:52:00,34.0,25.0,29.67,SE,124,6.0,11.0,69,0.00,,,0.00,,2013-02-18 06:52:00,
2013-02-18 01:01:00,34.0,25.0,29.65,SE,129,8.0,12.0,69,0.00,,,0.00,,2013-02-18 07:01:00,
2013-02-18 01:11:00,34.0,25.0,29.65,SE,129,8.0,12.0,69,0.00,,,0.00,,2013-02-18 07:11:00,
2013-02-18 01:21:00,36.0,26.0,29.65,SE,130,6.0,11.0,67,0.00,,,0.00,,2013-02-18 07:21:00,
2013-02-18 01:32:00,36.0,26.0,29.64,SE,133,6.0,11.0,67,0.00,,,0.00,,2013-02-18 07:32:00,
2013-02-18 01:42:00,36.0,26.0,29.64,SE,133,6.0,11.0,67,0.00,,,0.00,,2013-02-18 07:42:00,
2013-02-18 01:52:00,37.0,27.0,29.63,SE,134,6.0,11.0,66,0.00,,,0.00,,2013-02-18 07:52:00,
2013-02-18 02:01:00,37.0,26.0,29.62,SSE,149,7.0,13.0,65,0.00,,,0.00,,2013-02-18 08:01:00,
2013-02-18 02:11:00,38.0,27.0,29.61,SE,133,9.0,15.0,64,0.00,,,0.00,,2013-02-18 08:11:00,
2013-02-18 02:21:00,38.0,27.0,29.61,SE,133,9.0,15.0,64,0.00,,,0.00,,2013-02-18 08:21:00,
2013-02-18 02:32:00,39.0,27.0,29.61,SE,143,7.0,17.0,63,0.00,,,0.00,,2013-02-18 08:32:00,
2013-02-18 02:42:00,39.0,27.0,29.61,SE,143,7.0,17.0,63,0.00,,,0.00,,2013-02-18 08:42:00,
2013-02-18 02:52:00,39.0,27.0,29.60,SE,137,6.0,12.0,63,0.00,,,0.00,,2013-02-18 08:52:00,
2013-02-18 03:02:00,39.0,28.0,29.60,SE,142,7.0,13.0,64,0.00,,,0.00,,2013-02-18 09:02:00,
2013-02-18 03:11:00,39.0,28.0,29.60,SE,142,7.0,13.0,64,0.00,,,0.00,,2013-02-18 09:11:00,
2013-02-18 03:22:00,39.0,28.0,29.60,SSE,150,7.0,11.0,64,0.00,,,0.00,,2013-02-18 09:22:00,
2013-02-18 03:31:00,39.0,28.0,29.59,SSE,149,6.0,11.0,64,0.00,,,0.00,,2013-02-18 09:31:00,
2013-02-18 03:41:00,39.0,28.0,29.59,SSE,149,6.0,11.0,64,0.00,,,0.00,,2013-02-18 09:41:00,
2013-02-18 03:51:00,39.0,28.0,29.58,SE,140,7.0,11.0,65,0.00,,,0.00,,2013-02-18 09:51:00,
2013-02-18 04:01:00,39.0,28.0,29.58,SE,140,6.0,9.0,65,0.00,,,0.00,,2013-02-18 10:01:00,
2013-02-18 04:11:00,39.0,28.0,29.58,SE,140,6.0,9.0,65,0.00,,,0.00,,2013-02-18 10:11:00,
2013-02-18 04:21:00,39.0,29.0,29.57,SE,133,5.0,10.0,66,0.00,,,0.00,,2013-02-18 10:21:00,
2013-02-18 04:31:00,39.0,29.0,29.57,SE,142,4.0,10.0,66,0.00,,,0.00,,2013-02-18 10:31:00,
2013-02-18 04:42:00,39.0,29.0,29.57,SE,142,4.0,10.0,66,0.00,,,0.00,,2013-02-18 10:42:00,
2013-02-18 04:53:00,39.0,29.0,29.57,SE,140,3.0,7.0,66,0.00,,,0.00,,2013-02-18 10:53:00,
2013-02-18 05:01:00,39.0,29.0,29.57,SE,137,1.0,5.0,67,0.00,,,0.00,,2013-02-18 11:01:00,
2013-02-18 05:11:00,39.0,29.0,29.57,SE,137,1.0,5.0,67,0.00,,,0.00,,2013-02-18 11:11:00,
2013-02-18 05:22:00,39.0,29.0,29.57,SE,138,3.0,6.0,67,0.00,,,0.00,,2013-02-18 11:22:00,
2013-02-18 05:32:00,39.0,29.0,29.57,SE,131,3.0,7.0,68,0.00,,,0.00,,2013-02-18 11:32:00,
2013-02-18 05:42:00,39.0,29.0,29.57,SE,131,3.0,7.0,68,0.00,,,0.00,,2013-02-18 11:42:00,
2013-02-18 05:52:00,39.0,29.0,29.57,North,0,0.0,3.0,67,0.00,,,0.00,,2013-02-18 11:52:00,
2013-02-18 06:02:00,39.0,29.0,29.56,SSE,147,2.0,4.0,68,0.00,,,0.00,,2013-02-18 12:02:00,
2013-02-18 06:11:00,39.0,29.0,29.56,SSE,147,2.0,4.0,68,0.00,,,0.00,,2013-02-18 12:11:00,
2013-02-18 06:22:00,40.0,30.0,29.56,SSE,149,3.0,7.0,67,0.00,,,0.00,,2013-02-18 12:22:00,
2013-02-18 06:32:00,40.0,30.0,29.56,SE,135,2.0,8.0,67,0.00,,,0.00,,2013-02-18 12:32:00,
2013-02-18 06:42:00,40.0,30.0,29.56,SE,135,2.0,8.0,67,0.00,,,0.00,,2013-02-18 12:42:00,
2013-02-18 06:53:00,39.0,29.0,29.54,SSE,150,1.0,6.0,68,0.00,,,0.00,,2013-02-18 12:53:00,
2013-02-18 07:02:00,40.0,30.0,29.55,South,184,2.0,8.0,68,0.00,,,0.00,,2013-02-18 13:02:00,
2013-02-18 07:12:00,40.0,30.0,29.55,South,184,2.0,8.0,68,0.00,,,0.00,,2013-02-18 13:12:00,
2013-02-18 07:22:00,40.0,30.0,29.55,South,188,2.0,7.0,67,0.00,,,0.00,,2013-02-18 13:22:00,
2013-02-18 07:32:00,40.0,30.0,29.55,South,171,1.0,4.0,68,0.00,,,0.00,,2013-02-18 13:32:00,
2013-02-18 07:42:00,40.0,30.0,29.55,South,171,1.0,4.0,68,0.00,,,0.00,,2013-02-18 13:42:00,
2013-02-18 07:53:00,37.0,28.0,29.56,North,0,0.0,4.0,71,0.00,,,0.00,,2013-02-18 13:53:00,
2013-02-18 08:02:00,35.0,28.0,29.56,North,0,0.0,4.0,75,0.00,,,0.00,,2013-02-18 14:02:00,
2013-02-18 08:11:00,35.0,28.0,29.56,North,0,0.0,4.0,75,0.00,,,0.00,,2013-02-18 14:11:00,
2013-02-18 08:22:00,34.0,28.0,29.57,North,0,0.0,2.0,77,0.00,,,0.00,,2013-02-18 14:22:00,
2013-02-18 08:32:00,34.0,28.0,29.57,North,0,0.0,0.0,80,0.00,,,0.00,,2013-02-18 14:32:00,
2013-02-18 08:42:00,34.0,28.0,29.57,North,0,0.0,0.0,80,0.00,,,0.00,,2013-02-18 14:42:00,
2013-02-18 08:53:00,36.0,29.0,29.57,North,0,0.0,0.0,77,0.00,,,0.00,,2013-02-18 14:53:00,
2013-02-18 09:02:00,36.0,29.0,29.57,North,0,0.0,3.0,77,0.00,,,0.00,,2013-02-18 15:02:00,
2013-02-18 09:11:00,36.0,29.0,29.57,North,0,0.0,3.0,77,0.00,,,0.00,,2013-02-18 15:11:00,
2013-02-18 09:22:00,38.0,30.0,29.57,North,0,0.0,1.0,74,0.00,,,0.00,,2013-02-18 15:22:00,
2013-02-18 09:32:00,40.0,32.0,29.57,North,0,0.0,0.0,73,0.00,,,0.00,,2013-02-18 15:32:00,
2013-02-18 09:42:00,40.0,32.0,29.57,North,0,0.0,0.0,73,0.00,,,0.00,,2013-02-18 15:42:00,
2013-02-18 09:52:00,40.0,31.0,29.57,North,0,0.0,0.0,71,0.00,,,0.00,,2013-02-18 15:52:00,
2013-02-18 10:02:00,41.0,32.0,29.57,West,266,2.0,4.0,69,0.00,,,0.00,,2013-02-18 16:02:00,
2013-02-18 10:12:00,41.0,32.0,29.57,West,266,2.0,4.0,69,0.00,,,0.00,,2013-02-18 16:12:00,
2013-02-18 10:22:00,43.0,32.0,29.57,WNW,295,7.0,11.0,65,0.00,,,0.00,,2013-02-18 16:22:00,
2013-02-18 10:32:00,43.0,32.0,29.57,WNW,290,7.0,12.0,66,0.00,,,0.00,,2013-02-18 16:32:00,
2013-02-18 10:42:00,43.0,32.0,29.57,WNW,290,7.0,12.0,66,0.00,,,0.00,,2013-02-18 16:42:00,
2013-02-18 10:53:00,43.0,32.0,29.57,WNW,300,7.0,13.0,66,0.00,,,0.00,,2013-02-18 16:53:00,
2013-02-18 11:03:00,43.0,33.0,29.58,WNW,292,6.0,10.0,68,0.00,,,0.00,,2013-02-18 17:03:00,
2013-02-18 11:12:00,43.0,33.0,29.58,WNW,292,6.0,10.0,68,0.00,,,0.00,,2013-02-18 17:12:00,
2013-02-18 11:22:00,43.0,32.0,29.58,NW,322,4.0,9.0,66,0.00,,,0.00,,2013-02-18 17:22:00,
2013-02-18 11:32:00,43.0,33.0,29.58,NW,318,3.0,9.0,67,0.00,,,0.00,,2013-02-18 17:32:00,
2013-02-18 11:42:00,43.0,33.0,29.58,NW,318,3.0,9.0,67,0.00,,,0.00,,2013-02-18 17:42:00,
2013-02-18 11:53:00,43.0,33.0,29.58,NW,321,4.0,10.0,68,0.00,,,0.00,,2013-02-18 17:53:00,
2013-02-18 12:02:00,43.0,34.0,29.57,NNW,345,5.0,11.0,69,0.00,,,0.00,,2013-02-18 18:02:00,
2013-02-18 12:12:00,43.0,34.0,29.57,NNW,345,5.0,11.0,69,0.00,,,0.00,,2013-02-18 18:12:00,
2013-02-18 12:22:00,43.0,34.0,29.58,NW,313,5.0,14.0,69,0.00,,,0.00,,2013-02-18 18:22:00,
2013-02-18 12:32:00,42.0,33.0,29.59,NNW,331,4.0,15.0,69,0.00,,,0.00,,2013-02-18 18:32:00,
2013-02-18 12:42:00,42.0,33.0,29.59,NNW,331,4.0,15.0,69,0.00,,,0.00,,2013-02-18 18:42:00,
2013-02-18 12:53:00,42.0,33.0,29.59,NNW,332,4.0,10.0,70,0.00,,,0.00,,2013-02-18 18:53:00,
2013-02-18 13:02:00,42.0,33.0,29.59,NW,320,6.0,12.0,71,0.00,,,0.00,,2013-02-18 19:02:00,
2013-02-18 13:22:00,41.0,33.0,29.61,NW,319,7.0,16.0,74,0.00,,,0.00,,2013-02-18 19:22:00,
2013-02-18 13:33:00,39.0,32.0,29.60,NW,323,7.0,15.0,77,0.00,,,0.00,,2013-02-18 19:33:00,
2013-02-18 13:42:00,39.0,32.0,29.60,NW,323,7.0,15.0,77,0.00,,,0.00,,2013-02-18 19:42:00,
2013-02-18 13:53:00,39.0,33.0,29.59,NNW,345,7.0,18.0,78,0.00,,,0.00,,2013-02-18 19:53:00,
2013-02-18 14:02:00,39.0,33.0,29.60,NNW,345,7.0,15.0,78,0.00,,,0.00,,2013-02-18 20:02:00,
2013-02-18 14:12:00,39.0,33.0,29.60,NNW,345,7.0,15.0,78,0.00,,,0.00,,2013-02-18 20:12:00,
2013-02-18 14:23:00,40.0,33.0,29.60,NNW,343,7.0,15.0,76,0.00,,,0.00,,2013-02-18 20:23:00,
2013-02-18 14:33:00,39.0,32.0,29.60,NNW,347,5.0,19.0,76,0.00,,,0.00,,2013-02-18 20:33:00,
2013-02-18 14:42:00,39.0,32.0,29.60,NNW,347,5.0,19.0,76,0.00,,,0.00,,2013-02-18 20:42:00,
2013-02-18 14:53:00,39.0,32.0,29.60,NNW,339,7.0,15.0,75,0.00,,,0.00,,2013-02-18 20:53:00,
2013-02-18 15:02:00,38.0,31.0,29.62,NW,318,11.0,22.0,76,0.00,,,0.00,,2013-02-18 21:02:00,
2013-02-18 15:12:00,38.0,31.0,29.62,NW,318,11.0,22.0,76,0.00,,,0.00,,2013-02-18 21:12:00,
2013-02-18 15:22:00,36.0,29.0,29.62,North,354,10.0,19.0,77,0.00,,,0.00,,2013-02-18 21:22:00,
2013-02-18 15:32:00,34.0,28.0,29.63,NNW,336,7.0,23.0,79,0.00,,,0.00,,2013-02-18 21:32:00,
2013-02-18 15:42:00,34.0,28.0,29.63,NNW,336,7.0,23.0,79,0.00,,,0.00,,2013-02-18 21:42:00,
2013-02-18 15:52:00,33.0,27.0,29.63,NNW,339,10.0,18.0,78,0.00,,,0.00,,2013-02-18 21:52:00,
2013-02-18 16:02:00,31.0,26.0,29.65,NNW,336,8.0,21.0,80,0.00,,,0.00,,2013-02-18 22:02:00,
2013-02-18 16:12:00,31.0,25.0,29.66,NW,321,9.0,18.0,79,0.00,,,0.00,,2013-02-18 22:12:00,
2013-02-18 16:22:00,31.0,25.0,29.66,NW,321,9.0,18.0,79,0.00,,,0.00,,2013-02-18 22:22:00,
2013-02-18 16:33:00,30.0,25.0,29.67,NW,319,8.0,20.0,82,0.00,,,0.00,,2013-02-18 22:33:00,
2013-02-18 16:42:00,30.0,25.0,29.67,NW,319,8.0,20.0,82,0.00,,,0.00,,2013-02-18 22:42:00,
2013-02-18 16:53:00,30.0,24.0,29.69,NW,315,7.0,19.0,77,0.00,,,0.00,,2013-02-18 22:53:00,
2013-02-18 17:02:00,30.0,23.0,29.69,NNW,345,6.0,16.0,75,0.00,,,0.00,,2013-02-18 23:02:00,
2013-02-18 17:12:00,30.0,23.0,29.69,NNW,345,6.0,16.0,75,0.00,,,0.00,,2013-02-18 23:12:00,
2013-02-18 17:22:00,30.0,22.0,29.70,NW,305,9.0,21.0,73,0.00,,,0.00,,2013-02-18 23:22:00,
2013-02-18 17:42:00,30.0,22.0,29.71,North,1,7.0,15.0,73,0.00,,,0.00,,2013-02-18 23:42:00,
2013-02-18 17:53:00,29.0,21.0,29.72,NW,304,10.0,20.0,71,0.00,,,0.00,,2013-02-18 23:53:00,
2013-02-18 18:02:00,29.0,20.0,29.73,NW,309,11.0,23.0,70,0.00,,,0.00,,2013-02-19 00:02:00,
2013-02-18 18:12:00,29.0,20.0,29.73,NW,309,11.0,23.0,70,0.00,,,0.00,,2013-02-19 00:12:00,
2013-02-18 18:22:00,28.0,19.0,29.74,WNW,302,13.0,24.0,69,0.00,,,0.00,,2013-02-19 00:22:00,
2013-02-18 18:33:00,28.0,19.0,29.75,NW,310,12.0,25.0,68,0.00,,,0.00,,2013-02-19 00:33:00,
2013-02-18 18:43:00,28.0,19.0,29.75,NW,310,12.0,25.0,68,0.00,,,0.00,,2013-02-19 00:43:00,
2013-02-18 18:54:00,27.0,18.0,29.76,NW,314,12.0,28.0,67,0.00,,,0.00,,2013-02-19 00:54:00,
2013-02-18 19:03:00,27.0,18.0,29.77,NW,320,10.0,21.0,68,0.00,,,0.00,,2013-02-19 01:03:00,
2013-02-18 19:13:00,27.0,18.0,29.77,NW,320,10.0,21.0,68,0.00,,,0.00,,2013-02-19 01:13:00,
2013-02-18 19:23:00,27.0,18.0,29.78,NW,305,11.0,21.0,67,0.00,,,0.00,,2013-02-19 01:23:00,
2013-02-18 19:34:00,26.0,17.0,29.78,NW,309,11.0,24.0,67,0.00,,,0.00,,2013-02-19 01:34:00,
2013-02-18 19:43:00,26.0,17.0,29.78,NW,309,11.0,24.0,67,0.00,,,0.00,,2013-02-19 01:43:00,
2013-02-18 19:55:00,25.0,15.0,29.80,WNW,301,10.0,24.0,66,0.00,,,0.00,,2013-02-19 01:55:00,
2013-02-18 20:02:00,25.0,15.0,29.80,NNW,329,11.0,23.0,66,0.00,,,0.00,,2013-02-19 02:02:00,
2013-02-18 20:13:00,25.0,15.0,29.80,NNW,329,11.0,23.0,66,0.00,,,0.00,,2013-02-19 02:13:00,
2013-02-18 20:23:00,25.0,16.0,29.81,NW,313,11.0,19.0,67,0.00,,,0.00,,2013-02-19 02:23:00,
2013-02-18 20:34:00,24.0,14.0,29.81,WNW,301,16.0,26.0,64,0.00,,,0.00,,2013-02-19 02:34:00,
2013-02-18 20:42:00,24.0,14.0,29.81,WNW,301,16.0,26.0,64,0.00,,,0.00,,2013-02-19 02:42:00,
2013-02-18 20:54:00,23.0,12.0,29.82,NW,305,16.0,27.0,63,0.00,,,0.00,,2013-02-19 02:54:00,
2013-02-18 21:05:00,22.0,13.0,29.83,NW,309,10.0,21.0,67,0.00,,,0.00,,2013-02-19 03:05:00,
2013-02-18 21:13:00,22.0,13.0,29.83,NW,309,10.0,21.0,67,0.00,,,0.00,,2013-02-19 03:13:00,
2013-02-18 21:23:00,22.0,13.0,29.83,WNW,298,11.0,20.0,68,0.00,,,0.00,,2013-02-19 03:23:00,
2013-02-18 21:33:00,21.0,11.0,29.84,WNW,302,10.0,31.0,64,0.00,,,0.00,,2013-02-19 03:33:00,
2013-02-18 21:43:00,21.0,11.0,29.84,WNW,302,10.0,31.0,64,0.00,,,0.00,,2013-02-19 03:43:00,
2013-02-18 21:54:00,20.0,10.0,29.85,NW,308,12.0,27.0,65,0.00,,,0.00,,2013-02-19 03:54:00,
2013-02-18 22:02:00,20.0,11.0,29.85,WNW,302,10.0,18.0,68,0.00,,,0.00,,2013-02-19 04:02:00,
2013-02-18 22:23:00,20.0,12.0,29.85,WNW,303,11.0,18.0,70,0.00,,,0.00,,2013-02-19 04:23:00,
2013-02-18 22:33:00,20.0,12.0,29.86,WNW,299,15.0,26.0,70,0.00,,,0.00,,2013-02-19 04:33:00,
2013-02-18 22:43:00,20.0,12.0,29.86,WNW,299,15.0,26.0,70,0.00,,,0.00,,2013-02-19 04:43:00,
2013-02-18 22:55:00,19.0,10.0,29.86,WNW,298,17.0,27.0,66,0.00,,,0.00,,2013-02-19 04:55:00,
2013-02-18 23:02:00,18.0,9.0,29.87,WNW,300,11.0,20.0,68,0.00,,,0.00,,2013-02-19 05:02:00,
2013-02-18 23:12:00,18.0,9.0,29.87,WNW,300,11.0,20.0,68,0.00,,,0.00,,2013-02-19 05:12:00,
2013-02-18 23:22:00,18.0,10.0,29.87,WNW,301,13.0,20.0,71,0.00,,,0.00,,2013-02-19 05:22:00,
2013-02-18 23:32:00,18.0,9.0,29.88,WNW,294,15.0,25.0,68,0.00,,,0.00,,2013-02-19 05:32:00,
2013-02-18 23:43:00,18.0,9.0,29.88,WNW,294,15.0,25.0,68,0.00,,,0.00,,2013-02-19 05:43:00,
2013-02-18 23:52:00,17.0,9.0,29.89,WNW,299,11.0,27.0,69,0.00,,,0.00,,2013-02-19 05:52:00,